RYR73H EDJA-LDDU
Flight info
| Callsign | RYR73H |
|---|---|
| Flight time | N/A |
| Altitude | 31000 |
| Route | KPT4B KPT Z999 BEMKI L607 XEBIX Z2 TUNUM Z204 GEDSO/N0441F350 DCT GIMIX DCT SABAD DCT SIPAL L607 NERRA |
| Aircraft | B738/M-SDE2E3FGHIRWXY/LB1 |
Departure
| Time | 2026-04-12 11:23 |
|---|---|
| Airport | Memmingen Allgau Airport (EDJA) |
Arrival
| Time | N/A |
|---|---|
| Airport | Dubrovnik Ruđer Bošković Airport (LDDU) |
| Time | Latitude | Longitude | Altitude | Speed | Heading |
|---|---|---|---|---|---|
| 2026-04-12 11:00 | 47.98870 | 10.23241 | 2078 ft | 0 kts | 49° |
| 2026-04-12 11:19 | 47.98871 | 10.23248 | 2078 ft | 2 kts | 69° |
| 2026-04-12 11:19 | 47.98863 | 10.23269 | 2077 ft | 3 kts | 148° |
| 2026-04-12 11:19 | 47.98831 | 10.23257 | 2076 ft | 7 kts | 223° |
| 2026-04-12 11:20 | 47.98802 | 10.23172 | 2075 ft | 12 kts | 251° |
| 2026-04-12 11:20 | 47.98770 | 10.23037 | 2076 ft | 15 kts | 250° |
| 2026-04-12 11:20 | 47.98726 | 10.22925 | 2076 ft | 12 kts | 227° |
| 2026-04-12 11:20 | 47.98702 | 10.22800 | 2075 ft | 8 kts | 261° |
| 2026-04-12 11:21 | 47.98670 | 10.22721 | 2078 ft | 11 kts | 197° |
| 2026-04-12 11:21 | 47.98593 | 10.22715 | 2078 ft | 8 kts | 180° |
| 2026-04-12 11:21 | 47.98526 | 10.22707 | 2079 ft | 12 kts | 196° |
| 2026-04-12 11:21 | 47.98464 | 10.22611 | 2079 ft | 15 kts | 238° |
| 2026-04-12 11:22 | 47.98407 | 10.22542 | 2080 ft | 6 kts | 166° |
| 2026-04-12 11:22 | 47.98367 | 10.22570 | 2082 ft | 6 kts | 151° |
| 2026-04-12 11:22 | 47.98361 | 10.22636 | 2082 ft | 9 kts | 65° |
| 2026-04-12 11:22 | 47.98405 | 10.22751 | 2081 ft | 29 kts | 59° |
| 2026-04-12 11:23 | 47.98673 | 10.23426 | 2077 ft | 119 kts | 59° |
| 2026-04-12 11:23 | 47.99198 | 10.24745 | 2368 ft | 165 kts | 59° |
| 2026-04-12 11:23 | 47.99723 | 10.26199 | 3608 ft | 158 kts | 57° |
| 2026-04-12 11:23 | 48.00288 | 10.27624 | 4666 ft | 159 kts | 58° |
| 2026-04-12 11:24 | 48.00877 | 10.29085 | 5446 ft | 169 kts | 60° |
| 2026-04-12 11:24 | 48.01535 | 10.30726 | 5817 ft | 202 kts | 62° |
| 2026-04-12 11:24 | 48.02306 | 10.32651 | 6070 ft | 229 kts | 61° |
| 2026-04-12 11:24 | 48.03141 | 10.34726 | 6587 ft | 242 kts | 62° |
| 2026-04-12 11:25 | 48.03701 | 10.37108 | 7196 ft | 246 kts | 92° |
| 2026-04-12 11:25 | 48.03288 | 10.39557 | 8043 ft | 243 kts | 126° |
| 2026-04-12 11:25 | 48.02104 | 10.41273 | 8940 ft | 237 kts | 155° |
| 2026-04-12 11:25 | 48.00575 | 10.42152 | 9869 ft | 235 kts | 168° |
| 2026-04-12 11:26 | 47.98983 | 10.42756 | 10680 ft | 237 kts | 176° |
| 2026-04-12 11:26 | 47.97345 | 10.42663 | 11263 ft | 247 kts | 193° |
| 2026-04-12 11:26 | 47.95563 | 10.42113 | 11467 ft | 275 kts | 195° |
| 2026-04-12 11:26 | 47.93600 | 10.41413 | 11692 ft | 303 kts | 196° |
| 2026-04-12 11:27 | 47.91475 | 10.40655 | 12092 ft | 322 kts | 195° |
| 2026-04-12 11:27 | 47.89260 | 10.39885 | 12822 ft | 329 kts | 195° |
| 2026-04-12 11:27 | 47.87186 | 10.39178 | 13590 ft | 334 kts | 195° |
| 2026-04-12 11:27 | 47.84891 | 10.38406 | 14331 ft | 340 kts | 195° |
| 2026-04-12 11:28 | 47.82503 | 10.37610 | 14210 ft | 345 kts | 195° |
| 2026-04-12 11:28 | 47.80187 | 10.36844 | 14156 ft | 338 kts | 195° |
| 2026-04-12 11:28 | 47.77883 | 10.36082 | 14122 ft | 336 kts | 195° |
| 2026-04-12 11:28 | 47.75618 | 10.35329 | 14121 ft | 336 kts | 195° |
| 2026-04-12 11:29 | 47.73431 | 10.34359 | 14097 ft | 319 kts | 209° |
| 2026-04-12 11:29 | 47.71758 | 10.32390 | 14104 ft | 301 kts | 232° |
| 2026-04-12 11:29 | 47.70881 | 10.29821 | 14104 ft | 289 kts | 255° |
| 2026-04-12 11:29 | 47.70843 | 10.26812 | 14121 ft | 291 kts | 278° |
| 2026-04-12 11:30 | 47.71354 | 10.23873 | 14117 ft | 295 kts | 283° |
| 2026-04-12 11:30 | 47.71957 | 10.20950 | 14007 ft | 297 kts | 283° |
| 2026-04-12 11:30 | 47.72581 | 10.17990 | 13581 ft | 303 kts | 284° |
| 2026-04-12 11:30 | 47.73221 | 10.14990 | 13149 ft | 303 kts | 284° |
| 2026-04-12 11:31 | 47.74050 | 10.12135 | 12904 ft | 300 kts | 303° |
| 2026-04-12 11:31 | 47.75664 | 10.10247 | 12777 ft | 296 kts | 335° |
| 2026-04-12 11:31 | 47.77611 | 10.09454 | 12697 ft | 283 kts | 341° |
| 2026-04-12 11:31 | 47.79462 | 10.08677 | 12220 ft | 281 kts | 337° |
| 2026-04-12 11:32 | 47.81325 | 10.07653 | 11575 ft | 286 kts | 333° |
| 2026-04-12 11:32 | 47.83131 | 10.06474 | 11257 ft | 280 kts | 330° |
| 2026-04-12 11:32 | 47.84852 | 10.05266 | 11111 ft | 266 kts | 329° |
| 2026-04-12 11:32 | 47.86493 | 10.04082 | 10884 ft | 259 kts | 329° |
| 2026-04-12 11:33 | 47.88096 | 10.02910 | 10614 ft | 252 kts | 326° |
| 2026-04-12 11:33 | 47.89376 | 10.01255 | 10204 ft | 239 kts | 295° |
| 2026-04-12 11:33 | 47.89811 | 9.99065 | 10108 ft | 206 kts | 261° |
| 2026-04-12 11:33 | 47.89569 | 9.97046 | 9779 ft | 198 kts | 258° |
| 2026-04-12 11:34 | 47.89490 | 9.94985 | 9300 ft | 203 kts | 261° |
| 2026-04-12 11:34 | 47.89406 | 9.92881 | 8869 ft | 204 kts | 261° |
| 2026-04-12 11:34 | 47.89306 | 9.90773 | 8481 ft | 204 kts | 261° |
| 2026-04-12 11:34 | 47.89184 | 9.88664 | 8047 ft | 203 kts | 257° |
| 2026-04-12 11:35 | 47.88937 | 9.86563 | 7573 ft | 205 kts | 260° |
| 2026-04-12 11:35 | 47.88511 | 9.84605 | 7067 ft | 202 kts | 230° |
| 2026-04-12 11:35 | 47.87413 | 9.83422 | 6609 ft | 196 kts | 193° |
| 2026-04-12 11:35 | 47.86078 | 9.83507 | 6187 ft | 194 kts | 154° |
| 2026-04-12 11:36 | 47.85146 | 9.84799 | 6100 ft | 182 kts | 115° |
| 2026-04-12 11:36 | 47.84987 | 9.86676 | 6028 ft | 191 kts | 83° |
| 2026-04-12 11:36 | 47.85227 | 9.88684 | 5915 ft | 201 kts | 81° |
| 2026-04-12 11:36 | 47.85731 | 9.90622 | 5812 ft | 202 kts | 60° |
| 2026-04-12 11:37 | 47.86448 | 9.92361 | 5764 ft | 198 kts | 62° |
| 2026-04-12 11:37 | 47.87135 | 9.94137 | 5686 ft | 196 kts | 62° |
| 2026-04-12 11:37 | 47.87817 | 9.95891 | 5608 ft | 195 kts | 61° |
| 2026-04-12 11:37 | 47.88503 | 9.97644 | 5516 ft | 197 kts | 62° |
| 2026-04-12 11:38 | 47.89206 | 9.99436 | 5314 ft | 202 kts | 60° |
| 2026-04-12 11:38 | 47.89910 | 10.01225 | 5114 ft | 198 kts | 60° |
| 2026-04-12 11:38 | 47.90603 | 10.02985 | 4890 ft | 194 kts | 59° |
| 2026-04-12 11:38 | 47.91278 | 10.04697 | 4673 ft | 189 kts | 59° |
| 2026-04-12 11:39 | 47.91929 | 10.06350 | 4464 ft | 186 kts | 58° |
| 2026-04-12 11:39 | 47.92586 | 10.08015 | 4255 ft | 186 kts | 59° |
| 2026-04-12 11:39 | 47.93229 | 10.09648 | 4088 ft | 178 kts | 58° |
| 2026-04-12 11:39 | 47.93832 | 10.11179 | 3893 ft | 164 kts | 58° |
| 2026-04-12 11:40 | 47.94394 | 10.12603 | 3707 ft | 159 kts | 57° |
| 2026-04-12 11:40 | 47.94944 | 10.13996 | 3489 ft | 154 kts | 57° |
| 2026-04-12 11:40 | 47.95469 | 10.15325 | 3311 ft | 142 kts | 56° |
| 2026-04-12 11:40 | 47.95956 | 10.16558 | 3101 ft | 137 kts | 56° |
| 2026-04-12 11:41 | 47.96437 | 10.17773 | 2889 ft | 136 kts | 57° |
| 2026-04-12 11:41 | 47.96922 | 10.19001 | 2684 ft | 137 kts | 56° |
| 2026-04-12 11:41 | 47.97407 | 10.20230 | 2481 ft | 138 kts | 56° |
| 2026-04-12 11:41 | 47.97890 | 10.21451 | 2278 ft | 136 kts | 56° |
| 2026-04-12 11:42 | 47.98365 | 10.22654 | 2110 ft | 131 kts | 56° |